55FL weather

The Murphy Company Heliport
West Palm Beach, Florida, United States

Public forecast

Using degrees Fahrenheit for public forecast. Weather courtesy of forecast.io.

Closest aviation weather report (METAR) to The Murphy Company Heliport

Closest report is Palm Beach International Airport, 2.1 nm (3.8 km) W. Retrieved 2019/10/20 03:53 UTC (42 minutes ago):

KPBI 200353Z 18007KT 10SM BKN100 28/24 A2990 RMK AO2 SLP124 T02780244

Closest aviation forecast (TAF) to The Murphy Company Heliport

Closest forecast is Palm Beach International Airport, 2.1 nm (3.8 km) W. Retrieved 2019-10-20 00:31 UTC (4 hours ago):

TAF KPBI 192328Z 2000/2024 17010KT P6SM VCSH SCT020 BKN110 FM200900 21007KT P6SM VCSH FEW020 SCT110 FM202000 19010KT P6SM SCT035 BKN120